Time;durP1;ratioP1;P1;durP2;ratioP2;P2;SDS_P1;SDS_P2;PMS_P1;PMS_P2;Temp;Humidity;BMP_temperature;BMP_pressure;BME280_temperature;BME280_humidity;BME280_pressure;Samples;Min_cycle;Max_cycle;Signal;HPM_P1;HPM_P2
2021/12/15 00:00:45;;;;;;;81.40;36.58;;;;;;;16.29;58.55;102939.16;5013921;28;20081;-64
2021/12/15 00:03:11;;;;;;;76.97;34.53;;;;;;;16.37;58.27;102938.53;5014080;28;20030;-63
2021/12/15 00:05:37;;;;;;;78.95;35.95;;;;;;;16.33;58.48;102931.91;4981096;28;20022;-64
2021/12/15 00:08:07;;;;;;;75.55;36.67;;;;;;;15.51;60.96;102935.28;4996677;28;20022;-64
2021/12/15 00:10:33;;;;;;;76.53;35.47;;;;;;;15.77;59.82;102935.97;4997021;28;20022;-63
2021/12/15 00:12:58;;;;;;;71.88;33.92;;;;;;;15.64;60.17;102937.44;4996627;28;20028;-65
2021/12/15 00:15:27;;;;;;;75.68;35.47;;;;;;;15.46;61.24;102932.56;4996899;28;20085;-65
2021/12/15 00:17:53;;;;;;;76.18;36.60;;;;;;;15.42;61.25;102932.31;5013741;28;20056;-63
2021/12/15 00:20:20;;;;;;;74.10;35.95;;;;;;;15.69;60.14;102929.09;4996667;28;20060;-64
2021/12/15 00:22:46;;;;;;;73.40;34.10;;;;;;;15.46;60.66;102935.31;5013559;28;20105;-67
2021/12/15 00:25:14;;;;;;;76.80;35.80;;;;;;;15.63;60.88;102927.47;4996286;28;20033;-63
2021/12/15 00:27:40;;;;;;;77.60;35.33;;;;;;;16.23;58.48;102930.06;5013769;28;20105;-67
2021/12/15 00:30:08;;;;;;;73.68;36.30;;;;;;;15.47;60.97;102928.69;4996084;28;20082;-64
2021/12/15 00:32:34;;;;;;;79.00;36.20;;;;;;;15.85;59.95;102927.06;4996783;28;20037;-63
2021/12/15 00:35:00;;;;;;;76.43;36.55;;;;;;;15.73;59.94;102921.03;4996057;28;20114;-67
2021/12/15 00:37:25;;;;;;;74.97;36.58;;;;;;;15.20;61.34;102925.22;4996468;28;20822;-63
2021/12/15 00:39:50;;;;;;;80.20;36.47;;;;;;;16.11;59.00;102924.09;5013429;28;20022;-65
2021/12/15 00:42:17;;;;;;;72.28;34.83;;;;;;;15.57;60.33;102917.56;5013038;28;20811;-63
2021/12/15 00:44:42;;;;;;;76.03;35.72;;;;;;;15.70;59.99;102925.22;4980097;28;20042;-67
2021/12/15 00:47:09;;;;;;;70.10;35.08;;;;;;;15.62;60.14;102928.59;4995536;28;20149;-68
2021/12/15 00:49:35;;;;;;;72.65;34.20;;;;;;;15.15;61.48;102924.44;4979969;28;20023;-65
2021/12/15 00:52:01;;;;;;;73.30;35.00;;;;;;;15.70;60.01;102925.22;5013040;28;20357;-66
2021/12/15 00:54:26;;;;;;;74.55;36.95;;;;;;;15.62;60.35;102917.53;5013292;28;20086;-63
2021/12/15 00:56:54;;;;;;;74.75;36.85;;;;;;;15.20;61.82;102927.19;4996323;28;20033;-63
2021/12/15 00:59:21;;;;;;;77.45;36.15;;;;;;;15.09;61.82;102920.03;4995406;28;20055;-63
2021/12/15 01:01:48;;;;;;;76.93;35.95;;;;;;;15.56;60.29;102926.97;4995950;28;20029;-67
2021/12/15 01:04:16;;;;;;;76.55;35.33;;;;;;;15.54;60.49;102920.88;5012611;28;20029;-65
2021/12/15 01:06:45;;;;;;;79.40;36.05;;;;;;;15.01;61.84;102927.81;4995870;28;20038;-64
2021/12/15 01:09:20;;;;;;;80.30;35.05;;;;;;;15.37;61.32;102927.63;4995350;28;20026;-67
2021/12/15 01:19:49;;;;;;;82.70;36.22;;;;;;;15.14;61.22;102928.31;5012181;28;20089;-64
2021/12/15 01:20:10;;;;;;;81.53;36.47;;;;;;;15.53;60.57;102924.78;5012367;28;20033;-65
2021/12/15 01:22:41;;;;;;;75.00;35.05;;;;;;;15.96;59.50;102933.34;5012628;28;20050;-65
2021/12/15 01:25:18;;;;;;;79.28;36.17;;;;;;;15.76;60.05;102932.41;5012336;28;20023;-63
2021/12/15 01:27:44;;;;;;;73.30;35.17;;;;;;;16.10;58.61;102933.53;5012853;28;20030;-65
2021/12/15 01:30:12;;;;;;;74.53;35.17;;;;;;;15.49;60.15;102934.75;5012459;28;20041;-66
2021/12/15 01:32:37;;;;;;;71.25;34.60;;;;;;;15.76;59.68;102932.41;4995502;28;20034;-63
2021/12/15 01:35:03;;;;;;;77.22;34.83;;;;;;;15.80;59.41;102924.34;4978822;28;20058;-65
2021/12/15 01:37:28;;;;;;;69.82;33.63;;;;;;;15.42;60.19;102933.13;5012604;28;20026;-65
2021/12/15 01:39:55;;;;;;;72.05;35.05;;;;;;;15.39;60.62;102936.47;4995300;28;20082;-66
2021/12/15 01:42:27;;;;;;;69.72;33.63;;;;;;;15.62;60.15;102936.91;5011985;28;20030;-67
2021/12/15 01:47:37;;;;;;;71.00;33.38;;;;;;;15.01;62.16;102946.31;5012393;28;20036;-63
2021/12/15 01:50:03;;;;;;;71.80;32.28;;;;;;;15.39;60.81;102941.97;4995089;28;20046;-63
2021/12/15 01:52:32;;;;;;;70.63;33.85;;;;;;;15.87;59.05;102948.91;5012248;28;20037;-61
2021/12/15 01:55:17;;;;;;;67.70;31.83;;;;;;;15.84;59.58;102947.53;5012355;28;20030;-66
2021/12/15 01:57:44;;;;;;;67.43;32.45;;;;;;;15.44;60.68;102943.06;5012219;28;20030;-65
2021/12/15 02:00:14;;;;;;;71.07;32.97;;;;;;;15.13;61.64;102954.25;5011760;28;20034;-64
2021/12/15 02:02:41;;;;;;;71.78;33.13;;;;;;;15.66;59.90;102946.25;4995001;28;20054;-66
2021/12/15 02:05:08;;;;;;;68.95;32.15;;;;;;;16.12;58.43;102954.22;4994305;28;20018;-67
2021/12/15 02:07:34;;;;;;;69.38;32.60;;;;;;;15.88;59.37;102961.63;5011884;28;20041;-64
2021/12/15 02:12:32;;;;;;;64.40;31.45;;;;;;;15.53;60.16;102963.50;5011608;28;20049;-63
2021/12/15 02:14:58;;;;;;;59.53;29.75;;;;;;;15.38;60.77;102956.94;5012113;28;20030;-63
2021/12/15 02:17:23;;;;;;;63.63;30.42;;;;;;;15.75;59.44;102955.59;4994111;28;20037;-67
2021/12/15 02:19:49;;;;;;;67.10;31.23;;;;;;;15.47;60.50;102953.56;4978389;28;20042;-66
2021/12/15 02:22:14;;;;;;;62.72;31.45;;;;;;;16.03;58.87;102958.72;4996237;28;20069;-65
2021/12/15 02:24:41;;;;;;;65.32;30.30;;;;;;;15.85;58.94;102959.44;5001244;28;20089;-64
2021/12/15 02:27:11;;;;;;;62.47;30.63;;;;;;;16.36;57.54;102961.78;5018458;28;20026;-64
2021/12/15 02:29:40;;;;;;;61.95;29.60;;;;;;;15.76;59.34;102962.81;5001279;28;20022;-63
2021/12/15 02:37:20;;;;;;;62.95;29.45;;;;;;;15.98;58.81;102963.50;5002204;28;20042;-64
2021/12/15 02:39:57;;;;;;;62.47;30.42;;;;;;;15.96;59.02;102961.00;5018199;28;20030;-63
2021/12/15 02:42:26;;;;;;;;;;;;;;;16.40;57.17;102959.25;5018137;28;20082;-64
2021/12/15 02:44:52;;;;;;;60.47;29.50;;;;;;;16.04;58.69;102957.63;5018191;28;19910;-65
2021/12/15 02:47:22;;;;;;;67.18;32.58;;;;;;;15.50;60.07;102962.09;5000580;28;20057;-64
2021/12/15 02:49:50;;;;;;;65.22;30.52;;;;;;;15.87;59.27;102962.72;5001012;28;20030;-65
2021/12/15 02:52:16;;;;;;;65.70;32.30;;;;;;;15.67;59.97;102953.44;5017866;28;20030;-64
2021/12/15 02:54:41;;;;;;;61.30;30.65;;;;;;;15.77;59.26;102963.63;5018043;28;20030;-64
2021/12/15 02:57:10;;;;;;;66.50;31.30;;;;;;;15.75;59.81;102961.13;5001154;28;20026;-66
2021/12/15 03:00:05;;;;;;;64.88;31.48;;;;;;;15.95;59.36;102962.97;5001129;28;20041;-64
2021/12/15 03:05:26;;;;;;;67.53;30.88;;;;;;;16.30;57.65;102960.16;5017703;28;20057;-62
2021/12/15 03:16:02;;;;;;;65.65;31.48;;;;;;;15.70;60.04;102968.63;5003481;28;20042;-63
2021/12/15 03:18:28;;;;;;;67.22;30.90;;;;;;;15.52;60.18;102967.34;5017444;28;20022;-64
2021/12/15 03:21:05;;;;;;;64.25;31.58;;;;;;;15.84;59.72;102968.84;5000808;28;20097;-66
2021/12/15 03:23:46;;;;;;;61.30;31.47;;;;;;;15.87;59.22;102968.28;5000297;28;20105;-66
2021/12/15 03:26:15;;;;;;;63.65;30.67;;;;;;;15.98;59.18;102969.03;5000636;28;20281;-64
2021/12/15 03:34:24;;;;;;;60.85;28.70;;;;;;;16.10;59.17;102963.94;5015693;28;20069;-63
2021/12/15 03:39:24;;;;;;;60.85;28.83;;;;;;;15.41;60.26;102961.91;5014146;28;20034;-66
2021/12/15 03:41:58;;;;;;;60.53;28.83;;;;;;;15.96;59.18;102966.53;5014762;28;20117;-66
2021/12/15 03:44:24;;;;;;;63.85;29.70;;;;;;;16.03;58.76;102971.75;5014277;28;20026;-64
2021/12/15 03:46:50;;;;;;;65.95;29.50;;;;;;;16.14;58.83;102968.59;4997640;28;20097;-65
2021/12/15 03:49:16;;;;;;;62.92;29.15;;;;;;;16.07;58.94;102970.88;4997364;28;20057;-64
2021/12/15 03:51:42;;;;;;;57.83;27.52;;;;;;;16.47;57.78;102976.34;5013891;28;20030;-66
2021/12/15 03:54:07;;;;;;;60.60;27.92;;;;;;;16.24;57.89;102967.69;4997472;28;20034;-65
2021/12/15 03:56:36;;;;;;;58.20;28.15;;;;;;;15.68;59.91;102971.66;4980800;28;20030;-65
2021/12/15 03:59:03;;;;;;;56.13;26.70;;;;;;;16.74;56.79;102980.50;4981176;28;20026;-63
2021/12/15 04:01:29;;;;;;;55.25;26.58;;;;;;;15.91;59.27;102975.72;4996585;28;20033;-64
2021/12/15 04:03:55;;;;;;;56.90;27.08;;;;;;;16.02;58.90;102982.00;4997100;28;20030;-67
2021/12/15 04:06:26;;;;;;;57.28;27.25;;;;;;;16.05;59.05;102978.66;4996440;28;20032;-63
2021/12/15 04:08:52;;;;;;;61.53;27.10;;;;;;;15.80;59.88;102981.59;5014280;28;20018;-62
2021/12/15 04:11:19;;;;;;;63.63;28.10;;;;;;;16.69;56.75;102978.63;4996895;28;20026;-66
2021/12/15 04:13:47;;;;;;;;;;;;;;;16.84;56.30;102989.53;5014195;28;20057;-65
2021/12/15 04:16:28;;;;;;;60.45;27.80;;;;;;;16.86;56.21;102990.09;4996771;28;20255;-65
2021/12/15 04:18:54;;;;;;;56.90;26.08;;;;;;;16.31;57.41;102986.72;4982478;28;20038;-64
2021/12/15 04:21:19;;;;;;;57.33;26.48;;;;;;;15.74;59.63;102989.06;4980548;28;20034;-63
2021/12/15 04:23:54;;;;;;;55.30;26.98;;;;;;;15.49;60.58;102990.03;4996168;28;20053;-65
2021/12/15 04:26:19;;;;;;;60.22;28.17;;;;;;;16.50;57.49;102993.19;4997030;28;20040;-65
2021/12/15 04:28:45;;;;;;;61.05;27.83;;;;;;;16.21;58.41;102984.88;4996221;28;20026;-64
2021/12/15 04:31:14;;;;;;;60.65;27.75;;;;;;;15.12;61.62;102994.06;4996709;28;20118;-63
2021/12/15 04:33:42;;;;;;;57.80;26.67;;;;;;;15.68;59.55;102991.03;5013313;28;20053;-63
2021/12/15 04:36:08;;;;;;;;;;;;;;;16.11;59.52;102987.72;5014066;28;20038;-63
2021/12/15 04:38:36;;;;;;;60.40;28.53;;;;;;;16.46;58.31;102986.59;5013170;28;19909;-62
2021/12/15 04:41:05;;;;;;;67.28;30.67;;;;;;;15.68;60.60;102987.44;4996254;28;20301;-63
2021/12/15 04:43:34;;;;;;;66.50;28.65;;;;;;;15.75;60.57;102993.50;5013082;28;20034;-63
2021/12/15 04:46:02;;;;;;;67.13;29.38;;;;;;;15.45;61.30;102987.03;4995043;28;20026;-65
2021/12/15 04:48:28;;;;;;;74.78;30.65;;;;;;;15.83;60.32;102989.31;4996182;28;20022;-65
2021/12/15 04:50:53;;;;;;;71.18;30.63;;;;;;;15.57;61.15;102992.19;4996072;28;20037;-65
2021/12/15 04:53:18;;;;;;;72.93;30.08;;;;;;;16.05;59.86;102998.03;4996024;28;20045;-64
2021/12/15 04:55:44;;;;;;;74.38;30.48;;;;;;;15.49;61.40;102995.56;5012678;28;20038;-63
2021/12/15 04:58:12;;;;;;;70.97;29.58;;;;;;;15.46;61.57;102998.88;5013227;28;20038;-64
2021/12/15 05:00:44;;;;;;;;;;;;;;;16.22;59.15;102985.69;4996240;28;20026;-65
2021/12/15 05:03:10;;;;;;;62.88;28.60;;;;;;;16.50;57.41;102992.38;4996073;28;20013;-66
2021/12/15 05:05:37;;;;;;;59.35;28.35;;;;;;;16.04;57.89;102999.13;5012382;28;20055;-67
2021/12/15 05:08:04;;;;;;;55.72;26.73;;;;;;;15.66;58.95;102996.03;4995787;28;20072;-66
2021/12/15 05:10:30;;;;;;;56.10;27.05;;;;;;;16.11;57.36;102999.63;5012364;28;20140;-64
2021/12/15 05:12:57;;;;;;;52.55;25.60;;;;;;;16.20;56.21;103004.53;4995877;28;20034;-66
2021/12/15 05:15:24;;;;;;;57.15;26.73;;;;;;;16.62;56.61;103000.28;4980108;28;20034;-63
2021/12/15 05:17:49;;;;;;;53.50;26.20;;;;;;;16.25;56.63;103001.72;5012607;28;20066;-63
2021/12/15 05:20:15;;;;;;;59.78;25.88;;;;;;;15.32;59.95;103001.44;5012630;28;20030;-63
2021/12/15 05:22:40;;;;;;;57.13;25.35;;;;;;;16.00;57.64;102995.25;5012209;28;20058;-65
2021/12/15 05:25:07;;;;;;;58.22;25.70;;;;;;;15.99;57.33;103001.94;4995576;28;20444;-64
2021/12/15 05:27:34;;;;;;;55.67;25.77;;;;;;;15.70;58.12;103002.66;5012113;28;20040;-63
2021/12/15 05:29:59;;;;;;;51.20;24.30;;;;;;;16.40;57.47;103012.69;4979231;28;20270;-64
2021/12/15 05:32:24;;;;;;;51.65;23.65;;;;;;;15.83;58.08;103005.91;4995318;28;20057;-65
2021/12/15 05:34:53;;;;;;;53.33;24.20;;;;;;;15.74;58.51;103008.41;5012214;28;20034;-65
2021/12/15 05:37:21;;;;;;;54.85;24.48;;;;;;;15.52;59.30;103004.09;4995031;28;20053;-65
2021/12/15 05:39:48;;;;;;;54.00;24.50;;;;;;;16.05;57.61;103003.56;5011931;28;20035;-66
2021/12/15 05:42:14;;;;;;;51.97;24.13;;;;;;;16.07;58.00;103006.03;4979336;28;20037;-64
2021/12/15 05:44:40;;;;;;;56.80;23.65;;;;;;;15.34;60.38;102997.28;5011874;28;20061;-65
2021/12/15 05:47:06;;;;;;;56.63;25.30;;;;;;;15.29;60.45;103008.38;4995265;28;20081;-62
2021/12/15 05:49:32;;;;;;;59.55;25.30;;;;;;;15.88;59.11;103003.94;5012247;28;20032;-65
2021/12/15 05:51:58;;;;;;;61.53;24.38;;;;;;;15.62;59.13;103006.00;5011925;28;20022;-65
2021/12/15 05:54:24;;;;;;;57.80;24.73;;;;;;;16.08;58.40;103008.50;5012324;28;20041;-65
2021/12/15 05:56:50;;;;;;;58.65;24.58;;;;;;;15.81;58.06;103013.66;4994206;28;20046;-63
2021/12/15 05:59:16;;;;;;;58.95;25.15;;;;;;;15.85;58.17;103012.81;5011961;28;20022;-64
2021/12/15 06:01:42;;;;;;;63.95;26.50;;;;;;;15.27;59.69;103015.28;5011410;28;20030;-65
2021/12/15 06:04:08;;;;;;;62.83;25.88;;;;;;;16.79;55.84;103017.28;5012054;28;20840;-64
2021/12/15 06:06:34;;;;;;;69.70;27.50;;;;;;;15.92;58.18;103021.63;4994540;28;20030;-63
2021/12/15 06:09:01;;;;;;;62.63;26.73;;;;;;;15.91;57.40;103013.63;4978307;28;20033;-64
2021/12/15 06:11:27;;;;;;;61.90;26.20;;;;;;;16.21;57.47;103015.31;4994542;28;20038;-66
2021/12/15 06:13:53;;;;;;;70.28;28.92;;;;;;;15.60;59.62;103014.59;4994356;28;20030;-63
2021/12/15 06:16:20;;;;;;;71.55;28.88;;;;;;;15.65;58.62;103010.94;5011927;28;20057;-65
2021/12/15 06:18:48;;;;;;;70.95;28.63;;;;;;;15.99;58.08;103012.16;4994410;28;20086;-65
2021/12/15 06:21:14;;;;;;;76.65;30.15;;;;;;;16.14;57.35;103021.16;5011684;28;20743;-65
2021/12/15 06:23:39;;;;;;;74.35;29.48;;;;;;;16.09;58.05;103018.44;4994129;28;20051;-63
2021/12/15 06:26:06;;;;;;;72.40;29.40;;;;;;;15.73;59.09;103024.19;4994609;28;20026;-63
2021/12/15 06:28:33;;;;;;;70.25;29.35;;;;;;;15.63;59.41;103015.13;5011604;28;20033;-64
2021/12/15 06:31:00;;;;;;;70.43;28.70;;;;;;;15.71;59.89;103026.41;5011028;28;20096;-63
2021/12/15 06:33:28;;;;;;;77.68;30.88;;;;;;;16.22;58.19;103024.44;5011516;28;20030;-66
2021/12/15 06:35:57;;;;;;;;;;;;;;;15.36;59.61;103032.94;4994466;28;20026;-64
2021/12/15 06:38:26;;;;;;;75.78;30.15;;;;;;;16.50;57.10;103034.72;5011337;28;20373;-66
2021/12/15 06:40:52;;;;;;;71.65;31.55;;;;;;;16.47;57.33;103035.31;5010974;28;20030;-63
2021/12/15 06:43:19;;;;;;;73.63;31.20;;;;;;;16.27;57.83;103033.56;4994363;28;20038;-66
2021/12/15 06:59:34;;;;;;;66.22;30.45;;;;;;;17.14;54.41;103051.28;5011388;28;20042;-62
2021/12/15 07:02:01;;;;;;;74.82;30.80;;;;;;;16.81;55.94;103053.84;4993792;28;20039;-63
2021/12/15 07:04:27;;;;;;;81.05;32.88;;;;;;;16.24;58.12;103049.88;4994178;28;20034;-68
2021/12/15 07:06:52;;;;;;;75.78;31.65;;;;;;;16.40;57.90;103054.22;4993604;28;20121;-62
2021/12/15 07:09:19;;;;;;;72.97;31.05;;;;;;;16.57;57.50;103064.03;4995041;28;20428;-66
2021/12/15 07:11:44;;;;;;;75.73;30.83;;;;;;;16.52;57.84;103061.31;4997401;28;20038;-63
2021/12/15 07:14:10;;;;;;;77.38;31.48;;;;;;;16.79;56.98;103056.06;4981726;28;20067;-65
2021/12/15 07:16:41;;;;;;;72.80;30.33;;;;;;;16.16;58.42;103058.81;5014663;28;20036;-63
2021/12/15 07:19:15;;;;;;;74.82;30.73;;;;;;;16.63;57.46;103065.63;5014196;28;20033;-65
2021/12/15 07:21:51;;;;;;;75.80;29.90;;;;;;;16.52;58.03;103067.66;4997119;28;20049;-66
2021/12/15 07:24:16;;;;;;;68.43;28.63;;;;;;;15.80;60.15;103061.81;4997015;28;20042;-63
2021/12/15 07:26:41;;;;;;;76.63;30.20;;;;;;;16.22;58.84;103068.72;4997745;28;20030;-66
2021/12/15 07:29:07;;;;;;;73.63;28.58;;;;;;;16.74;57.70;103064.41;4996925;28;20038;-63
2021/12/15 07:31:32;;;;;;;60.22;26.48;;;;;;;16.24;58.81;103060.94;4997077;28;20026;-65
2021/12/15 07:33:57;;;;;;;60.47;27.23;;;;;;;16.05;59.70;103058.03;4980445;28;20030;-64
2021/12/15 07:36:23;;;;;;;68.00;28.45;;;;;;;16.80;57.31;103062.44;5014216;28;20030;-64
2021/12/15 07:38:48;;;;;;;68.30;27.75;;;;;;;16.72;57.21;103066.66;4980372;28;20169;-63
2021/12/15 07:41:25;;;;;;;64.72;27.27;;;;;;;16.02;59.53;103062.22;5014224;28;20030;-66
2021/12/15 07:43:52;;;;;;;67.00;27.30;;;;;;;16.39;58.39;103071.91;5013915;28;20022;-65
2021/12/15 07:46:18;;;;;;;64.05;26.20;;;;;;;16.66;57.35;103070.59;4980720;28;20399;-67
2021/12/15 07:48:44;;;;;;;60.47;26.90;;;;;;;16.61;58.15;103065.09;5014053;28;20026;-63
2021/12/15 07:51:10;;;;;;;61.60;27.23;;;;;;;16.28;58.79;103078.66;5013597;28;20034;-63
2021/12/15 07:53:39;;;;;;;59.25;26.83;;;;;;;16.57;58.20;103072.34;4996920;28;20361;-67
2021/12/15 07:56:04;;;;;;;63.97;25.35;;;;;;;15.83;60.51;103072.28;5013770;28;20022;-62
2021/12/15 07:58:30;;;;;;;62.88;25.50;;;;;;;15.99;60.04;103071.09;5014074;28;20057;-68
2021/12/15 08:00:59;;;;;;;59.92;27.10;;;;;;;16.18;59.44;103075.94;5013726;28;20132;-67
2021/12/15 08:03:26;;;;;;;69.78;26.65;;;;;;;15.56;61.43;103070.72;5014032;28;20026;-65
2021/12/15 08:05:52;;;;;;;56.75;25.17;;;;;;;16.55;58.88;103080.09;5014117;28;20027;-65
2021/12/15 08:08:18;;;;;;;69.13;27.33;;;;;;;15.87;60.83;103073.38;5014236;28;20030;-66
2021/12/15 08:10:44;;;;;;;68.88;27.67;;;;;;;16.41;58.74;103077.97;4997019;28;20019;-64
2021/12/15 08:13:11;;;;;;;62.93;27.57;;;;;;;16.11;59.68;103077.09;5013687;28;20090;-64
2021/12/15 08:15:38;;;;;;;66.28;26.60;;;;;;;16.80;57.63;103074.34;4980655;28;20089;-65
2021/12/15 08:18:04;;;;;;;58.60;24.63;;;;;;;16.93;57.32;103080.34;4996510;28;20037;-64
2021/12/15 08:20:31;;;;;;;58.67;25.38;;;;;;;17.30;56.05;103081.63;4996125;28;20034;-66
2021/12/15 08:22:57;;;;;;;66.43;25.65;;;;;;;16.86;57.40;103086.22;5013207;28;20054;-63
2021/12/15 08:25:23;;;;;;;59.42;25.05;;;;;;;16.18;59.04;103084.25;5013769;28;20030;-64
2021/12/15 08:27:50;;;;;;;56.85;24.55;;;;;;;16.39;58.92;103085.75;5013396;28;20105;-64
2021/12/15 08:30:20;;;;;;;54.65;23.95;;;;;;;16.31;59.13;103089.97;4995837;28;20041;-64
2021/12/15 08:32:53;;;;;;;52.70;22.92;;;;;;;15.98;59.81;103086.03;5011020;28;20030;-64
2021/12/15 08:35:21;;;;;;;56.20;24.02;;;;;;;16.18;59.68;103098.91;5013124;28;20054;-65
2021/12/15 08:37:46;;;;;;;55.95;23.77;;;;;;;16.56;58.16;103095.59;5022755;28;20021;-65
2021/12/15 08:40:14;;;;;;;57.60;23.05;;;;;;;16.25;59.27;103098.59;5014919;28;20026;-63
2021/12/15 08:42:39;;;;;;;51.90;23.88;;;;;;;16.19;59.59;103091.44;5015393;28;20036;-66
2021/12/15 08:45:06;;;;;;;48.85;23.05;;;;;;;15.98;60.21;103091.56;5010814;28;20054;-66
2021/12/15 08:47:32;;;;;;;53.47;23.95;;;;;;;16.58;58.63;103094.19;5008779;28;20025;-63
2021/12/15 08:49:57;;;;;;;46.30;21.80;;;;;;;17.08;56.63;103096.00;5009059;28;20025;-62
2021/12/15 08:52:23;;;;;;;51.70;23.00;;;;;;;16.41;58.66;103099.31;5027168;28;20029;-64
2021/12/15 08:54:49;;;;;;;51.33;22.20;;;;;;;16.75;57.97;103101.25;5005846;28;20068;-64
2021/12/15 08:57:14;;;;;;;48.15;22.48;;;;;;;16.77;58.01;103104.56;4983605;28;20042;-65
2021/12/15 08:59:39;;;;;;;48.45;21.05;;;;;;;16.38;59.12;103097.94;5008694;28;20022;-63
2021/12/15 09:02:05;;;;;;;53.25;21.52;;;;;;;16.24;59.03;103102.47;5000901;28;20049;-65
2021/12/15 09:04:31;;;;;;;50.00;20.80;;;;;;;15.92;59.57;103109.28;5023172;28;20030;-63
2021/12/15 09:06:56;;;;;;;47.55;20.27;;;;;;;16.14;59.89;103112.47;5023569;28;20037;-65
2021/12/15 09:09:22;;;;;;;44.70;21.00;;;;;;;16.07;59.49;103116.69;5021085;28;20029;-62
2021/12/15 09:11:51;;;;;;;41.50;19.00;;;;;;;16.30;58.77;103110.47;5020005;28;20052;-63
2021/12/15 09:14:16;;;;;;;40.10;18.25;;;;;;;16.70;57.46;103118.72;5022703;28;20076;-65
2021/12/15 09:16:46;;;;;;;43.00;19.15;;;;;;;16.33;57.48;103122.88;4992044;28;20023;-64
2021/12/15 09:19:12;;;;;;;38.95;17.33;;;;;;;16.59;57.20;103125.47;5019523;28;20053;-63
2021/12/15 09:21:38;;;;;;;39.97;19.08;;;;;;;16.34;57.72;103130.09;5018802;28;20025;-64
2021/12/15 09:24:05;;;;;;;36.90;17.55;;;;;;;16.63;56.82;103123.78;5025932;28;20081;-64
2021/12/15 09:26:32;;;;;;;43.20;17.50;;;;;;;16.87;55.93;103123.88;5019937;28;20048;-62
2021/12/15 09:28:58;;;;;;;34.42;17.33;;;;;;;16.88;56.65;103124.69;4999863;28;20058;-64
2021/12/15 09:31:25;;;;;;;35.47;17.65;;;;;;;16.75;56.79;103138.09;5026172;28;20073;-65
2021/12/15 09:33:53;;;;;;;35.70;18.15;;;;;;;16.54;57.30;103139.38;5004451;28;20026;-66
2021/12/15 09:36:19;;;;;;;36.17;17.48;;;;;;;16.49;57.37;103135.50;5010718;28;20026;-63
2021/12/15 09:38:47;;;;;;;32.22;16.67;;;;;;;16.44;57.20;103143.84;5003278;28;20022;-64
2021/12/15 09:41:16;;;;;;;40.08;17.17;;;;;;;16.85;56.55;103143.56;5026272;28;20049;-64
2021/12/15 09:43:43;;;;;;;37.65;16.65;;;;;;;17.22;54.83;103147.66;5020030;28;20054;-63
2021/12/15 09:46:16;;;;;;;35.60;17.55;;;;;;;17.49;54.50;103146.25;5002251;28;20023;-65
2021/12/15 10:02:34;;;;;;;42.35;19.02;;;;;;;16.76;56.69;103172.97;5013801;28;20037;-63
2021/12/15 10:18:37;;;;;;;35.78;16.20;;;;;;;16.16;58.43;103175.84;5030215;28;20462;-64
2021/12/15 10:21:05;;;;;;;32.25;16.02;;;;;;;16.50;57.46;103172.34;4999158;28;20031;-64
2021/12/15 10:23:38;;;;;;;39.13;17.42;;;;;;;15.91;58.93;103179.56;5001474;28;20462;-65
2021/12/15 10:26:06;;;;;;;32.65;15.05;;;;;;;15.93;59.27;103172.63;5001791;28;20030;-63
2021/12/15 10:28:32;;;;;;;34.20;14.75;;;;;;;16.40;58.29;103176.00;5022024;28;20026;-63
2021/12/15 10:31:06;;;;;;;32.35;16.10;;;;;;;16.18;59.06;103178.31;5005020;28;20394;-63
2021/12/15 10:33:36;;;;;;;36.75;15.82;;;;;;;16.42;58.33;103179.31;5007675;28;20019;-62
2021/12/15 10:36:05;;;;;;;38.80;16.27;;;;;;;16.43;57.86;103166.28;5015442;28;20030;-63
2021/12/15 10:38:41;;;;;;;30.60;13.80;;;;;;;17.10;56.33;103171.34;5003741;28;20026;-66
2021/12/15 10:41:11;;;;;;;32.28;14.77;;;;;;;17.02;55.88;103181.09;5005620;28;20018;-64
2021/12/15 10:43:52;;;;;;;30.08;13.55;;;;;;;16.90;56.59;103186.22;5019765;28;20030;-63
2021/12/15 10:46:25;;;;;;;36.88;13.57;;;;;;;17.01;56.11;103180.28;5023019;28;20104;-65
2021/12/15 10:49:15;;;;;;;26.63;12.40;;;;;;;17.10;55.93;103174.97;5031933;28;20027;-65
2021/12/15 10:51:50;;;;;;;31.77;12.80;;;;;;;16.90;55.74;103172.34;5003944;28;20028;-62
2021/12/15 10:54:27;;;;;;;29.13;12.73;;;;;;;16.87;56.52;103182.06;5022239;28;20064;-60
2021/12/15 10:56:56;;;;;;;;;;;;;;;17.04;55.62;103181.66;5017985;28;20033;-62
2021/12/15 10:59:23;;;;;;;25.33;12.30;;;;;;;16.99;55.61;103178.91;5021659;28;19913;-62
2021/12/15 11:01:51;;;;;;;;;;;;;;;17.57;54.44;103170.56;5023111;28;20022;-64
2021/12/15 11:04:37;;;;;;;24.27;11.18;;;;;;;16.94;55.96;103178.97;4997551;28;19917;-63
2021/12/15 11:07:10;;;;;;;27.73;10.18;;;;;;;16.64;56.78;103183.59;5009757;28;20061;-61
2021/12/15 11:09:52;;;;;;;25.67;10.15;;;;;;;16.50;57.25;103175.94;5003683;28;20101;-62
2021/12/15 11:12:20;;;;;;;22.83;10.73;;;;;;;17.03;55.45;103177.22;5020344;28;20034;-65
2021/12/15 11:14:50;;;;;;;24.58;10.40;;;;;;;17.08;55.04;103176.34;5017329;28;20021;-62
2021/12/15 11:17:20;;;;;;;23.20;9.32;;;;;;;16.58;56.39;103171.72;5018588;28;20022;-61
2021/12/15 11:19:47;;;;;;;21.58;9.23;;;;;;;17.07;55.03;103172.75;5000144;28;20142;-62
2021/12/15 11:22:49;;;;;;;24.33;8.52;;;;;;;17.16;54.45;103175.72;5023153;28;20057;-64
2021/12/15 11:25:29;;;;;;;17.80;8.88;;;;;;;17.22;54.55;103178.13;4943770;29;20043;-63
2021/12/15 11:27:59;;;;;;;17.05;8.25;;;;;;;16.89;55.07;103179.00;5011912;28;20054;-60
2021/12/15 11:31:01;;;;;;;20.15;8.45;;;;;;;17.32;54.06;103180.00;5001010;28;20022;-64
2021/12/15 11:33:37;;;;;;;16.13;7.65;;;;;;;17.00;54.24;103172.25;5017794;28;20026;-62
2021/12/15 11:36:13;;;;;;;17.07;7.97;;;;;;;17.02;54.37;103170.00;4997921;28;20026;-63
2021/12/15 11:38:42;;;;;;;16.67;7.60;;;;;;;17.00;54.50;103172.25;5027074;28;20037;-62
2021/12/15 11:41:19;;;;;;;18.92;7.43;;;;;;;17.69;53.06;103174.88;5024752;28;20023;-63
2021/12/15 11:43:47;;;;;;;;;;;;;;;17.43;53.48;103180.72;5024990;28;20038;-61
2021/12/15 11:46:27;;;;;;;18.17;7.25;;;;;;;16.74;55.14;103180.75;5004680;28;19959;-62
2021/12/15 11:49:03;;;;;;;15.18;6.88;;;;;;;17.20;53.59;103177.63;5007149;28;20041;-61
2021/12/15 11:51:45;;;;;;;22.00;8.55;;;;;;;17.11;54.58;103179.34;5018463;28;20037;-67
2021/12/15 11:54:21;;;;;;;26.05;8.88;;;;;;;16.62;55.75;103177.50;5022759;28;20041;-63
2021/12/15 11:56:56;;;;;;;18.90;8.38;;;;;;;17.12;54.27;103171.91;5005287;28;20093;-63
2021/12/15 11:59:38;;;;;;;16.23;8.23;;;;;;;16.69;55.07;103166.94;5014409;28;20074;-62
2021/12/15 12:02:09;;;;;;;22.58;8.15;;;;;;;17.16;53.46;103173.75;5019929;28;20030;-60
2021/12/15 12:04:37;;;;;;;19.13;7.78;;;;;;;17.55;52.85;103167.28;5020736;28;20808;-62
2021/12/15 12:07:12;;;;;;;19.02;8.20;;;;;;;17.37;53.23;103174.41;5000210;28;20034;-63
2021/12/15 12:09:39;;;;;;;16.38;7.57;;;;;;;17.83;51.98;103173.06;4999511;28;20018;-63
2021/12/15 12:12:05;;;;;;;;;;;;;;;17.68;51.94;103181.56;4993047;28;20034;-61
2021/12/15 12:14:39;;;;;;;15.50;8.05;;;;;;;17.84;51.91;103173.88;5019001;28;19964;-61
2021/12/15 12:17:12;;;;;;;20.88;8.10;;;;;;;17.29;53.54;103174.22;5020047;28;20030;-62
2021/12/15 12:19:44;;;;;;;18.33;8.68;;;;;;;16.94;54.23;103167.88;5016193;28;20026;-62
2021/12/15 12:22:11;;;;;;;17.50;8.20;;;;;;;17.00;54.18;103162.00;5023407;28;20051;-62
2021/12/15 12:24:37;;;;;;;18.88;7.45;;;;;;;17.02;53.92;103156.16;5015482;28;20018;-63
2021/12/15 12:27:05;;;;;;;18.20;7.68;;;;;;;17.41;53.46;103161.59;5020245;28;20105;-62
2021/12/15 12:29:30;;;;;;;18.45;7.50;;;;;;;17.84;51.85;103157.25;5012364;28;20019;-63
2021/12/15 12:31:56;;;;;;;20.90;8.00;;;;;;;16.93;54.90;103149.63;4982390;28;20137;-64
2021/12/15 12:34:21;;;;;;;14.82;7.35;;;;;;;17.43;53.36;103152.16;5017958;28;20022;-62